Time,TemperatureF,DewpointF,PressureIn,WindDirection,WindDirectionDegrees,WindSpeedMPH,WindSpeedGustMPH,Humidity,HourlyPrecipIn,Conditions,Clouds,dailyrainin,SoftwareType,DateUTC
2013-05-21 00:05:00,61.6,40.0,29.80,North,11,0.0,1.0,45,0.00,,,0.00,weatherlink.com 1.10,2013-05-21 07:05:00,
2013-05-21 00:20:00,59.9,40.0,29.79,North,8,2.0,3.0,48,0.00,,,0.00,weatherlink.com 1.10,2013-05-21 07:20:00,
2013-05-21 00:35:00,60.2,40.0,29.78,ESE,115,0.0,2.0,47,0.00,,,0.00,weatherlink.com 1.10,2013-05-21 07:35:00,
2013-05-21 00:50:00,60.4,39.0,29.77,NW,311,0.0,3.0,46,0.00,,,0.00,weatherlink.com 1.10,2013-05-21 07:50:00,
2013-05-21 01:05:00,60.1,40.0,29.77,NE,44,0.0,4.0,47,0.00,,,0.00,weatherlink.com 1.10,2013-05-21 08:05:00,
2013-05-21 01:20:00,59.5,40.0,29.76,SSE,167,2.0,3.0,48,0.00,,,0.00,weatherlink.com 1.10,2013-05-21 08:20:00,
2013-05-21 01:35:00,59.7,39.0,29.76,West,273,0.0,2.0,47,0.00,,,0.00,weatherlink.com 1.10,2013-05-21 08:35:00,
2013-05-21 01:50:00,62.0,39.0,29.75,SE,146,2.0,8.0,43,0.00,,,0.00,weatherlink.com 1.10,2013-05-21 08:50:00,
2013-05-21 02:05:00,59.9,39.0,29.74,ESE,109,1.0,5.0,46,0.00,,,0.00,weatherlink.com 1.10,2013-05-21 09:05:00,
2013-05-21 02:20:00,60.8,39.0,29.74,SE,137,1.0,4.0,44,0.00,,,0.00,weatherlink.com 1.10,2013-05-21 09:20:00,
2013-05-21 02:35:00,57.6,40.0,29.73,NNW,347,0.0,2.0,53,0.00,,,0.00,weatherlink.com 1.10,2013-05-21 09:35:00,
2013-05-21 02:50:00,56.4,40.0,29.72,NW,323,3.0,3.0,55,0.00,,,0.00,weatherlink.com 1.10,2013-05-21 09:50:00,
2013-05-21 03:05:00,57.4,40.0,29.71,NNW,343,1.0,3.0,53,0.00,,,0.00,weatherlink.com 1.10,2013-05-21 10:05:00,
2013-05-21 03:20:00,58.5,39.0,29.70,NNE,13,0.0,3.0,49,0.00,,,0.00,weatherlink.com 1.10,2013-05-21 10:20:00,
2013-05-21 03:35:00,56.8,41.0,29.70,ENE,58,0.0,5.0,55,0.00,,,0.00,weatherlink.com 1.10,2013-05-21 10:35:00,
2013-05-21 03:50:00,55.8,41.0,29.69,NE,34,3.0,5.0,58,0.00,,,0.00,weatherlink.com 1.10,2013-05-21 10:50:00,
2013-05-21 04:05:00,56.3,40.0,29.68,ESE,109,0.0,3.0,55,0.00,,,0.00,weatherlink.com 1.10,2013-05-21 11:05:00,
2013-05-21 04:20:00,57.2,40.0,29.67,NNE,26,1.0,3.0,53,0.00,,,0.00,weatherlink.com 1.10,2013-05-21 11:20:00,
2013-05-21 04:35:00,56.6,40.0,29.66,NNE,20,0.0,4.0,55,0.00,,,0.00,weatherlink.com 1.10,2013-05-21 11:35:00,
2013-05-21 04:50:00,59.5,37.0,29.66,ESE,120,1.0,5.0,44,0.00,,,0.00,weatherlink.com 1.10,2013-05-21 11:50:00,
2013-05-21 05:05:00,61.6,37.0,29.65,ESE,122,8.0,8.0,40,0.00,,,0.00,weatherlink.com 1.10,2013-05-21 12:05:00,
2013-05-21 05:21:00,63.0,37.0,29.65,SE,142,2.0,15.0,38,0.00,,,0.00,weatherlink.com 1.10,2013-05-21 12:21:00,
2013-05-21 05:36:00,62.9,37.0,29.64,ESE,121,6.0,15.0,38,0.00,,,0.00,weatherlink.com 1.10,2013-05-21 12:36:00,
2013-05-21 05:51:00,63.5,37.0,29.63,SSE,149,5.0,17.0,38,0.00,,,0.00,weatherlink.com 1.10,2013-05-21 12:51:00,
2013-05-21 06:06:00,63.8,37.0,29.63,ESE,119,8.0,13.0,37,0.00,,,0.00,weatherlink.com 1.10,2013-05-21 13:06:00,
2013-05-21 06:21:00,64.4,37.0,29.62,SSE,149,11.0,16.0,36,0.00,,,0.00,weatherlink.com 1.10,2013-05-21 13:21:00,
2013-05-21 06:36:00,64.5,37.0,29.61,East,101,7.0,14.0,36,0.00,,,0.00,weatherlink.com 1.10,2013-05-21 13:36:00,
2013-05-21 06:51:00,64.4,37.0,29.60,East,97,7.0,21.0,36,0.00,,,0.00,weatherlink.com 1.10,2013-05-21 13:51:00,
2013-05-21 07:06:00,64.9,37.0,29.61,SE,134,5.0,15.0,36,0.00,,,0.00,weatherlink.com 1.10,2013-05-21 14:06:00,
2013-05-21 07:21:00,65.3,38.0,29.61,ESE,105,6.0,15.0,36,0.00,,,0.00,weatherlink.com 1.10,2013-05-21 14:21:00,
2013-05-21 07:36:00,66.1,38.0,29.60,East,91,5.0,17.0,36,0.00,,,0.00,weatherlink.com 1.10,2013-05-21 14:36:00,
2013-05-21 07:51:00,66.4,38.0,29.60,SSE,150,14.0,15.0,35,0.00,,,0.00,weatherlink.com 1.10,2013-05-21 14:51:00,
2013-05-21 08:06:00,67.0,38.0,29.59,SE,128,14.0,14.0,35,0.00,,,0.00,weatherlink.com 1.10,2013-05-21 15:06:00,
2013-05-21 08:21:00,67.4,38.0,29.57,SE,145,12.0,19.0,34,0.00,,,0.00,weatherlink.com 1.10,2013-05-21 15:21:00,
2013-05-21 08:36:00,67.6,38.0,29.58,SE,145,12.0,21.0,34,0.00,,,0.00,weatherlink.com 1.10,2013-05-21 15:36:00,
2013-05-21 08:51:00,67.6,39.0,29.58,SSE,157,9.0,19.0,35,0.00,,,0.00,weatherlink.com 1.10,2013-05-21 15:51:00,
2013-05-21 09:06:00,68.0,38.0,29.57,SSE,160,7.0,16.0,34,0.00,,,0.00,weatherlink.com 1.10,2013-05-21 16:06:00,
2013-05-21 09:21:00,67.7,39.0,29.56,SSE,152,6.0,20.0,35,0.00,,,0.00,weatherlink.com 1.10,2013-05-21 16:21:00,
2013-05-21 09:36:00,68.0,38.0,29.55,SE,144,7.0,22.0,34,0.00,,,0.00,weatherlink.com 1.10,2013-05-21 16:36:00,
2013-05-21 09:51:00,68.4,40.0,29.54,South,174,7.0,20.0,35,0.00,,,0.00,weatherlink.com 1.10,2013-05-21 16:51:00,
2013-05-21 10:06:00,69.5,38.0,29.54,ESE,120,4.0,23.0,32,0.00,,,0.00,weatherlink.com 1.10,2013-05-21 17:06:00,
2013-05-21 10:36:00,70.4,40.0,29.53,SSE,157,6.0,11.0,33,0.00,,,0.00,weatherlink.com 1.10,2013-05-21 17:36:00,
2013-05-21 10:51:00,71.3,38.0,29.52,ESE,110,2.0,19.0,30,0.00,,,0.00,weatherlink.com 1.10,2013-05-21 17:51:00,
2013-05-21 11:06:00,71.6,41.0,29.52,SE,143,4.0,17.0,33,0.00,,,0.00,weatherlink.com 1.10,2013-05-21 18:06:00,
2013-05-21 11:21:00,72.1,39.0,29.50,SE,146,3.0,16.0,30,0.00,,,0.00,weatherlink.com 1.10,2013-05-21 18:21:00,
2013-05-21 11:36:00,71.9,39.0,29.50,East,91,3.0,18.0,30,0.00,,,0.00,weatherlink.com 1.10,2013-05-21 18:36:00,
2013-05-21 12:07:00,73.2,38.0,29.48,ESE,122,11.0,13.0,28,0.00,,,0.00,weatherlink.com 1.10,2013-05-21 19:07:00,
2013-05-21 12:22:00,73.8,40.0,29.47,SSE,153,8.0,11.0,30,0.00,,,0.00,weatherlink.com 1.10,2013-05-21 19:22:00,
2013-05-21 12:37:00,72.2,42.0,29.48,South,188,6.0,20.0,34,0.00,,,0.00,weatherlink.com 1.10,2013-05-21 19:37:00,
2013-05-21 12:52:00,68.9,43.0,29.48,SW,214,13.0,19.0,40,0.00,,,0.00,weatherlink.com 1.10,2013-05-21 19:52:00,
2013-05-21 13:07:00,66.7,45.0,29.48,SW,217,7.0,18.0,46,0.00,,,0.00,weatherlink.com 1.10,2013-05-21 20:07:00,
2013-05-21 13:22:00,65.7,44.0,29.49,SSW,198,7.0,18.0,45,0.00,,,0.00,weatherlink.com 1.10,2013-05-21 20:22:00,
2013-05-21 13:37:00,63.8,41.0,29.50,South,176,22.0,29.0,44,0.00,,,0.00,weatherlink.com 1.10,2013-05-21 20:37:00,
2013-05-21 13:52:00,63.3,44.0,29.50,South,179,16.0,25.0,49,0.00,,,0.00,weatherlink.com 1.10,2013-05-21 20:52:00,
2013-05-21 14:07:00,64.1,43.0,29.51,SW,214,13.0,19.0,46,0.00,,,0.00,weatherlink.com 1.10,2013-05-21 21:07:00,
2013-05-21 14:22:00,61.4,40.0,29.53,SSW,203,11.0,23.0,45,0.00,,,0.00,weatherlink.com 1.10,2013-05-21 21:22:00,
2013-05-21 14:37:00,60.8,40.0,29.54,SW,217,14.0,21.0,46,0.00,,,0.00,weatherlink.com 1.10,2013-05-21 21:37:00,
2013-05-21 14:52:00,62.9,43.0,29.53,SW,231,10.0,24.0,49,0.00,,,0.00,weatherlink.com 1.10,2013-05-21 21:52:00,
2013-05-21 15:07:00,61.7,43.0,29.54,South,183,10.0,26.0,50,0.00,,,0.00,weatherlink.com 1.10,2013-05-21 22:07:00,
2013-05-21 15:22:00,58.2,43.0,29.57,South,184,12.0,23.0,58,0.00,,,0.00,weatherlink.com 1.10,2013-05-21 22:22:00,
2013-05-21 15:37:00,55.0,45.0,29.58,SSW,211,12.0,21.0,68,0.00,,,0.00,weatherlink.com 1.10,2013-05-21 22:37:00,
2013-05-21 15:52:00,50.5,43.0,29.59,WSW,248,9.0,19.0,75,0.00,,,0.00,weatherlink.com 1.10,2013-05-21 22:52:00,
2013-05-21 16:07:00,49.3,41.0,29.61,SW,226,6.0,17.0,72,0.00,,,0.00,weatherlink.com 1.10,2013-05-21 23:07:00,
2013-05-21 16:22:00,48.7,41.0,29.61,SW,219,12.0,20.0,74,0.00,,,0.00,weatherlink.com 1.10,2013-05-21 23:22:00,
2013-05-21 16:37:00,48.1,40.0,29.62,WSW,239,6.0,14.0,73,0.00,,,0.00,weatherlink.com 1.10,2013-05-21 23:37:00,
2013-05-21 16:52:00,48.9,40.0,29.61,SW,235,4.0,9.0,72,0.00,,,0.00,weatherlink.com 1.10,2013-05-21 23:52:00,
2013-05-21 17:07:00,48.9,39.0,29.62,SW,223,7.0,10.0,70,0.00,,,0.00,weatherlink.com 1.10,2013-05-22 00:07:00,
2013-05-21 17:22:00,48.2,39.0,29.64,SSW,210,13.0,14.0,70,0.00,,,0.00,weatherlink.com 1.10,2013-05-22 00:22:00,
2013-05-21 17:37:00,47.7,39.0,29.65,West,260,2.0,11.0,71,0.00,,,0.00,weatherlink.com 1.10,2013-05-22 00:37:00,
2013-05-21 17:52:00,47.0,38.0,29.66,WSW,238,2.0,12.0,70,0.00,,,0.00,weatherlink.com 1.10,2013-05-22 00:52:00,
2013-05-21 18:07:00,46.2,39.0,29.67,SW,222,8.0,9.0,77,0.02,,,0.02,weatherlink.com 1.10,2013-05-22 01:07:00,
2013-05-21 18:22:00,44.3,39.0,29.65,West,259,3.0,7.0,80,0.03,,,0.03,weatherlink.com 1.10,2013-05-22 01:22:00,
2013-05-21 18:37:00,43.7,39.0,29.67,SSW,198,2.0,6.0,83,0.04,,,0.04,weatherlink.com 1.10,2013-05-22 01:37:00,
2013-05-21 18:52:00,43.3,39.0,29.66,SW,218,5.0,9.0,85,0.06,,,0.06,weatherlink.com 1.10,2013-05-22 01:52:00,
2013-05-21 19:07:00,42.7,38.0,29.66,SSE,164,6.0,11.0,84,0.08,,,0.10,weatherlink.com 1.10,2013-05-22 02:07:00,
2013-05-21 19:23:00,42.3,38.0,29.65,ESE,103,1.0,4.0,85,0.11,,,0.14,weatherlink.com 1.10,2013-05-22 02:23:00,
2013-05-21 19:38:00,41.8,37.0,29.65,ESE,104,1.0,5.0,84,0.11,,,0.15,weatherlink.com 1.10,2013-05-22 02:38:00,
2013-05-21 19:53:00,42.2,38.0,29.64,ESE,116,0.0,3.0,84,0.09,,,0.16,weatherlink.com 1.10,2013-05-22 02:53:00,
2013-05-21 20:08:00,42.2,37.0,29.63,NE,36,2.0,7.0,83,0.10,,,0.20,weatherlink.com 1.10,2013-05-22 03:08:00,
2013-05-21 20:23:00,41.9,38.0,29.62,NE,34,1.0,4.0,85,0.10,,,0.25,weatherlink.com 1.10,2013-05-22 03:23:00,
2013-05-21 20:39:00,42.2,38.0,29.64,West,278,0.0,4.0,86,0.10,,,0.25,weatherlink.com 1.10,2013-05-22 03:39:00,
2013-05-21 20:53:00,42.4,39.0,29.65,East,89,0.0,2.0,87,0.10,,,0.26,weatherlink.com 1.10,2013-05-22 03:53:00,
2013-05-21 21:08:00,43.2,39.0,29.65,SSE,148,2.0,6.0,84,0.06,,,0.26,weatherlink.com 1.10,2013-05-22 04:08:00,
2013-05-21 21:23:00,43.5,39.0,29.65,ESE,102,0.0,-999.0,84,-99.99,,,0.26,weatherlink.com 1.10,2013-05-22 04:23:00,
2013-05-21 21:38:00,42.3,38.0,29.66,SE,146,2.0,4.0,86,0.01,,,0.26,weatherlink.com 1.10,2013-05-22 04:38:00,
2013-05-21 21:53:00,42.0,38.0,29.66,SSE,153,4.0,4.0,87,0.00,,,0.26,weatherlink.com 1.10,2013-05-22 04:53:00,
2013-05-21 22:08:00,41.9,39.0,29.67,SSE,155,4.0,6.0,88,0.00,,,0.26,weatherlink.com 1.10,2013-05-22 05:08:00,
2013-05-21 22:23:00,42.0,39.0,29.68,SSE,160,3.0,5.0,88,0.00,,,0.26,weatherlink.com 1.10,2013-05-22 05:23:00,
2013-05-21 22:38:00,41.9,39.0,29.67,SSE,167,4.0,5.0,88,0.00,,,0.26,weatherlink.com 1.10,2013-05-22 05:38:00,
2013-05-21 22:53:00,41.8,39.0,29.67,SSW,202,3.0,4.0,88,0.00,,,0.26,weatherlink.com 1.10,2013-05-22 05:53:00,
2013-05-21 23:08:00,41.7,38.0,29.67,SSE,151,1.0,4.0,88,0.00,,,0.26,weatherlink.com 1.10,2013-05-22 06:08:00,
2013-05-21 23:23:00,41.5,39.0,29.68,South,186,2.0,3.0,89,0.00,,,0.26,weatherlink.com 1.10,2013-05-22 06:23:00,
2013-05-21 23:38:00,41.4,38.0,29.68,SSE,163,0.0,2.0,89,0.00,,,0.26,weatherlink.com 1.10,2013-05-22 06:38:00,
2013-05-21 23:53:00,41.2,38.0,29.69,SSW,205,0.0,2.0,89,0.00,,,0.26,weatherlink.com 1.10,2013-05-22 06:53:00,